グアダラハラ の空港の天気 - METARとTAF

ドン・ミゲル・イダルゴ・イ・コスティージャ国際空港 ( MMGL / GDL ) - メキシコ ハリスコ州グアダラハラ
飛行場実況気象(Metar)
観測時間10/22 06:58 CDT (10/22 11:58 UTC)
風向・風速静穏 0m/s
視程10km以上
天気現象
全天の4割程度の雲 雲底高度 760m
全天の8割程度の雲 雲底高度 2740m
気温17℃
湿度83%
気圧1007.8hPa
METARMMGL 221158Z RTD 00000KT 8SM SCT025 BKN090 17/14 A3013 RMK SLP078 52007 905 8/530 MSGTX MMMX
過去の天気等 Google飛行場航空写真 Wunderground天気予報

過去48時間のMETAR

飛行場予報(TAF)
発表時間: 10/22 05:58 CDT (10/22 10:58 UTC)
予報対象時間: 22日7時 CDT ~ 23日13時 CDT
風向・風速西南西 3m/s
視程10km以上
全天の4割程度の雲 雲底高度 610m
全天の4割程度の雲 雲底高度 2440m
22日14時 CDT から
風向・風速西南西 5m/s
視程10km以上
全天の4割程度の雲 雲底高度 610m
全天の4割程度の雲 雲底高度 7620m
22日17時 CDT から 確率 40% で
視程8050m
天気現象
全天の8割程度の雲 雲底高度 610m
22日22時 CDT から
風向・風速西北西 3m/s
視程10km以上
全天の4割程度の雲 雲底高度 910m
全天の4割程度の雲 雲底高度 7620m
23日11時 CDT から
風向・風速西南西 3m/s
視程10km以上
全天の4割程度の雲 雲底高度 610m
TAF MMGL 221058Z 2212/2318 24005KT P6SM SCT020 SCT080 TX29/2221Z TN16/2212Z
FM221900 24010KT P6SM SCT020 SCT250
PROB40 2222/2302 5SM RA BKN020
FM230300 30005KT P6SM SCT030 SCT250
FM231600 24005KT P6SM SCT020